Newcastle Airport
YWLM : now visible

Airfield :











YOU CAN JOIN US ON...

 
LOGIN :

Register | Disclaimer

   EN    FR    IT 

 









Legend :    VFR   Marginal VFR   IFR   Intensive IFR   Very Intensive IFR
Visi :
Ceiling :
>= 8 km
>= 3000ft
5 to 8 km
1000 to 3000 ft
1500m to 5 km
500 to 1000 ft
800 to 1500m
200 to 500 ft
< 800m
< 200 ft
Symbols :   Thunderstorms  Fog  Heavy snow  Heavy precipitations  Wind > 20 kt






- Airport Elevation : 31 ft
- IATA code : NTL


YWLM - Newcastle

CURRENT METAR :
  • 011700Z AUTO 31004KT 9999 // NCD 22/22 Q1010

EXPIRED METARs :
  • 011630Z AUTO 25002KT 9999 // NCD 22/21 Q1010
  • 011600Z AUTO 34004KT 9999 // NCD 22/21 Q1010
  • 011530Z AUTO 01004KT 9999 // NCD 23/22 Q1010
  • 011500Z AUTO 02006KT 9999 // NCD 23/22 Q1010
  • 011430Z AUTO 06003KT 9999 // NCD 23/22 Q1010

TAF TAF YWLM
Valid from the 01 at 12:00 until the 02 at 12:00 UTC


011059Z 0112/0212 05010KT CAVOK
FM011700 19020G32KT 9999 SCT010 BKN020
FM012300 16018G25KT 9999 SCT025 BKN035
FM020400 14014KT 9999 SCT025 BKN035
YBBB FIR / Oceania



MET'MAP, your aeronautical weather chart ! - Copyright ORBIFLY December 2007 - Disclaimer

ORBIFLY MET'MAP TEAM :

Programming & Development : Alexandra Zaïnal
Concept & original design : Baudouin d'Aumeries
Assistance for programming : Marc-Olivier Méhu
Technical & hardware support : Manuel Goepfert

Contact : metmap@orbifly.com




SOURCES & CREDITS :

   NOAA       Earth
Advisory